Terminal Aerodrome Forecast
Issued by NWS Huntsville, AL

Home | Current Version | Previous Version | Text Only | Print | Product List | Glossary On
Versions: 1 2 3 4 5 6 7 8 9 10 11 12 13
000
FTUS44 KHUN 230520
TAFHSV
TAF
KHSV 230520Z 2306/2406 VRB03KT P6SM SCT250
     FM231700 22006KT P6SM VCTS SCT040CB
      TEMPO 2319/2323 5SM -TSRA BR BKN040CB
     FM240100 22005KT P6SM SCT050 BKN120=

USA.gov is the U.S. government's official web portal to all federal, state and local government web resources and services.